sensor_id;sensor_type;location;lat;lon;timestamp;temperature;humidity
52245;DHT22;55759;51.586;-1.758;2023-12-28T00:01:24;10.10;84.50
52245;DHT22;55759;51.586;-1.758;2023-12-28T00:03:50;10.10;84.50
52245;DHT22;55759;51.586;-1.758;2023-12-28T00:06:16;10.10;84.60
52245;DHT22;55759;51.586;-1.758;2023-12-28T00:08:41;10.20;84.50
52245;DHT22;55759;51.586;-1.758;2023-12-28T00:11:07;10.20;84.00
52245;DHT22;55759;51.586;-1.758;2023-12-28T00:13:32;10.20;84.10
52245;DHT22;55759;51.586;-1.758;2023-12-28T00:15:58;10.10;84.40
52245;DHT22;55759;51.586;-1.758;2023-12-28T00:18:24;10.00;84.70
52245;DHT22;55759;51.586;-1.758;2023-12-28T00:20:49;9.90;85.10
52245;DHT22;55759;51.586;-1.758;2023-12-28T00:23:15;9.80;85.50
52245;DHT22;55759;51.586;-1.758;2023-12-28T00:25:41;9.80;85.80
52245;DHT22;55759;51.586;-1.758;2023-12-28T00:28:06;9.70;85.80
52245;DHT22;55759;51.586;-1.758;2023-12-28T00:30:32;9.70;86.00
52245;DHT22;55759;51.586;-1.758;2023-12-28T00:32:57;9.70;86.00
52245;DHT22;55759;51.586;-1.758;2023-12-28T00:35:23;9.80;85.60
52245;DHT22;55759;51.586;-1.758;2023-12-28T00:37:49;9.90;85.50
52245;DHT22;55759;51.586;-1.758;2023-12-28T00:40:14;9.90;85.60
52245;DHT22;55759;51.586;-1.758;2023-12-28T00:42:40;10.00;85.40
52245;DHT22;55759;51.586;-1.758;2023-12-28T00:45:08;9.90;85.10
52245;DHT22;55759;51.586;-1.758;2023-12-28T00:47:35;10.00;85.10
52245;DHT22;55759;51.586;-1.758;2023-12-28T00:50:00;10.00;84.90
52245;DHT22;55759;51.586;-1.758;2023-12-28T00:52:26;10.00;84.70
52245;DHT22;55759;51.586;-1.758;2023-12-28T00:54:51;10.10;84.20
52245;DHT22;55759;51.586;-1.758;2023-12-28T00:57:17;10.20;83.80
52245;DHT22;55759;51.586;-1.758;2023-12-28T00:59:42;10.30;83.80
52245;DHT22;55759;51.586;-1.758;2023-12-28T01:02:09;10.40;83.30
52245;DHT22;55759;51.586;-1.758;2023-12-28T01:04:34;10.40;83.00
52245;DHT22;55759;51.586;-1.758;2023-12-28T01:07:00;10.40;82.70
52245;DHT22;55759;51.586;-1.758;2023-12-28T01:09:27;10.40;82.70
52245;DHT22;55759;51.586;-1.758;2023-12-28T01:11:53;10.50;82.50
52245;DHT22;55759;51.586;-1.758;2023-12-28T01:14:18;10.40;82.50
52245;DHT22;55759;51.586;-1.758;2023-12-28T01:16:44;10.40;82.40
52245;DHT22;55759;51.586;-1.758;2023-12-28T01:19:12;10.40;82.00
52245;DHT22;55759;51.586;-1.758;2023-12-28T01:21:38;10.50;82.00
52245;DHT22;55759;51.586;-1.758;2023-12-28T01:24:03;10.50;82.00
52245;DHT22;55759;51.586;-1.758;2023-12-28T01:26:29;10.60;82.00
52245;DHT22;55759;51.586;-1.758;2023-12-28T01:28:54;10.50;81.80
52245;DHT22;55759;51.586;-1.758;2023-12-28T01:31:22;10.50;81.90
52245;DHT22;55759;51.586;-1.758;2023-12-28T01:33:47;10.40;82.10
52245;DHT22;55759;51.586;-1.758;2023-12-28T01:36:17;10.30;82.30
52245;DHT22;55759;51.586;-1.758;2023-12-28T01:38:43;10.30;82.40
52245;DHT22;55759;51.586;-1.758;2023-12-28T01:41:09;10.20;82.50
52245;DHT22;55759;51.586;-1.758;2023-12-28T01:43:34;10.30;82.60
52245;DHT22;55759;51.586;-1.758;2023-12-28T01:46:00;10.30;82.30
52245;DHT22;55759;51.586;-1.758;2023-12-28T01:48:26;10.40;82.20
52245;DHT22;55759;51.586;-1.758;2023-12-28T01:50:51;10.40;82.20
52245;DHT22;55759;51.586;-1.758;2023-12-28T01:53:17;10.30;82.90
52245;DHT22;55759;51.586;-1.758;2023-12-28T01:55:43;10.20;83.20
52245;DHT22;55759;51.586;-1.758;2023-12-28T01:58:09;10.10;84.10
52245;DHT22;55759;51.586;-1.758;2023-12-28T02:00:34;9.90;84.90
52245;DHT22;55759;51.586;-1.758;2023-12-28T02:03:03;9.70;86.20
52245;DHT22;55759;51.586;-1.758;2023-12-28T02:05:29;9.60;87.10
52245;DHT22;55759;51.586;-1.758;2023-12-28T02:07:55;9.50;88.00
52245;DHT22;55759;51.586;-1.758;2023-12-28T02:10:20;9.40;88.70
52245;DHT22;55759;51.586;-1.758;2023-12-28T02:12:46;9.30;89.30
52245;DHT22;55759;51.586;-1.758;2023-12-28T02:15:12;9.20;89.60
52245;DHT22;55759;51.586;-1.758;2023-12-28T02:17:42;9.20;89.80
52245;DHT22;55759;51.586;-1.758;2023-12-28T02:20:09;9.10;90.20
52245;DHT22;55759;51.586;-1.758;2023-12-28T02:22:35;9.10;90.40
52245;DHT22;55759;51.586;-1.758;2023-12-28T02:25:07;9.10;90.30
52245;DHT22;55759;51.586;-1.758;2023-12-28T02:27:34;9.10;90.40
52245;DHT22;55759;51.586;-1.758;2023-12-28T02:30:01;9.00;90.20
52245;DHT22;55759;51.586;-1.758;2023-12-28T02:32:35;9.00;90.10
52245;DHT22;55759;51.586;-1.758;2023-12-28T02:35:04;9.10;90.10
52245;DHT22;55759;51.586;-1.758;2023-12-28T02:37:31;9.10;90.20
52245;DHT22;55759;51.586;-1.758;2023-12-28T02:39:58;9.10;90.30
52245;DHT22;55759;51.586;-1.758;2023-12-28T02:42:24;9.10;90.30
52245;DHT22;55759;51.586;-1.758;2023-12-28T02:44:50;9.10;90.40
52245;DHT22;55759;51.586;-1.758;2023-12-28T02:47:15;9.10;90.50
52245;DHT22;55759;51.586;-1.758;2023-12-28T02:49:41;9.10;90.50
52245;DHT22;55759;51.586;-1.758;2023-12-28T02:52:06;9.10;90.70
52245;DHT22;55759;51.586;-1.758;2023-12-28T02:54:32;9.10;91.00
52245;DHT22;55759;51.586;-1.758;2023-12-28T02:56:57;9.10;91.20
52245;DHT22;55759;51.586;-1.758;2023-12-28T02:59:23;9.10;91.40
52245;DHT22;55759;51.586;-1.758;2023-12-28T03:01:49;9.10;91.50
52245;DHT22;55759;51.586;-1.758;2023-12-28T03:04:15;9.10;91.70
52245;DHT22;55759;51.586;-1.758;2023-12-28T03:06:41;9.10;91.90
52245;DHT22;55759;51.586;-1.758;2023-12-28T03:09:07;9.00;92.00
52245;DHT22;55759;51.586;-1.758;2023-12-28T03:11:32;8.90;91.70
52245;DHT22;55759;51.586;-1.758;2023-12-28T03:13:58;8.80;91.70
52245;DHT22;55759;51.586;-1.758;2023-12-28T03:16:23;8.80;91.90
52245;DHT22;55759;51.586;-1.758;2023-12-28T03:18:49;8.70;92.10
52245;DHT22;55759;51.586;-1.758;2023-12-28T03:21:14;8.70;92.20
52245;DHT22;55759;51.586;-1.758;2023-12-28T03:23:40;8.70;92.20
52245;DHT22;55759;51.586;-1.758;2023-12-28T03:26:05;8.60;92.30
52245;DHT22;55759;51.586;-1.758;2023-12-28T03:28:31;8.60;92.40
52245;DHT22;55759;51.586;-1.758;2023-12-28T03:30:57;8.60;92.50
52245;DHT22;55759;51.586;-1.758;2023-12-28T03:33:24;8.60;92.60
52245;DHT22;55759;51.586;-1.758;2023-12-28T03:35:49;8.60;92.60
52245;DHT22;55759;51.586;-1.758;2023-12-28T03:38:17;8.60;92.70
52245;DHT22;55759;51.586;-1.758;2023-12-28T03:40:42;8.60;92.80
52245;DHT22;55759;51.586;-1.758;2023-12-28T03:43:08;8.60;92.90
52245;DHT22;55759;51.586;-1.758;2023-12-28T03:45:34;8.70;92.90
52245;DHT22;55759;51.586;-1.758;2023-12-28T03:47:59;8.60;92.90
52245;DHT22;55759;51.586;-1.758;2023-12-28T03:50:27;8.70;92.90
52245;DHT22;55759;51.586;-1.758;2023-12-28T03:52:52;8.70;92.80
52245;DHT22;55759;51.586;-1.758;2023-12-28T03:55:18;8.70;92.70
52245;DHT22;55759;51.586;-1.758;2023-12-28T03:57:43;8.60;92.70
52245;DHT22;55759;51.586;-1.758;2023-12-28T04:00:11;8.70;92.60
52245;DHT22;55759;51.586;-1.758;2023-12-28T04:02:37;8.60;92.50
52245;DHT22;55759;51.586;-1.758;2023-12-28T04:05:02;8.60;92.40
52245;DHT22;55759;51.586;-1.758;2023-12-28T04:07:29;8.60;92.30
52245;DHT22;55759;51.586;-1.758;2023-12-28T04:09:55;8.60;92.10
52245;DHT22;55759;51.586;-1.758;2023-12-28T04:12:21;8.60;91.90
52245;DHT22;55759;51.586;-1.758;2023-12-28T04:14:47;8.70;91.30
52245;DHT22;55759;51.586;-1.758;2023-12-28T04:17:12;8.70;91.00
52245;DHT22;55759;51.586;-1.758;2023-12-28T04:19:38;8.80;90.70
52245;DHT22;55759;51.586;-1.758;2023-12-28T04:22:04;8.80;90.20
52245;DHT22;55759;51.586;-1.758;2023-12-28T04:24:29;8.90;89.90
52245;DHT22;55759;51.586;-1.758;2023-12-28T04:26:55;8.90;89.50
52245;DHT22;55759;51.586;-1.758;2023-12-28T04:29:20;8.90;89.40
52245;DHT22;55759;51.586;-1.758;2023-12-28T04:31:46;9.00;89.00
52245;DHT22;55759;51.586;-1.758;2023-12-28T04:34:12;9.00;88.40
52245;DHT22;55759;51.586;-1.758;2023-12-28T04:36:41;9.10;87.60
52245;DHT22;55759;51.586;-1.758;2023-12-28T04:39:08;9.20;87.30
52245;DHT22;55759;51.586;-1.758;2023-12-28T04:41:33;9.30;86.90
52245;DHT22;55759;51.586;-1.758;2023-12-28T04:43:59;9.30;86.40
52245;DHT22;55759;51.586;-1.758;2023-12-28T04:46:24;9.20;86.20
52245;DHT22;55759;51.586;-1.758;2023-12-28T04:48:50;9.30;86.20
52245;DHT22;55759;51.586;-1.758;2023-12-28T04:51:15;9.20;86.10
52245;DHT22;55759;51.586;-1.758;2023-12-28T04:53:41;9.30;86.00
52245;DHT22;55759;51.586;-1.758;2023-12-28T04:56:07;9.40;85.20
52245;DHT22;55759;51.586;-1.758;2023-12-28T04:58:32;9.40;85.50
52245;DHT22;55759;51.586;-1.758;2023-12-28T05:00:58;9.40;85.10
52245;DHT22;55759;51.586;-1.758;2023-12-28T05:03:23;9.50;84.90
52245;DHT22;55759;51.586;-1.758;2023-12-28T05:05:49;9.60;84.60
52245;DHT22;55759;51.586;-1.758;2023-12-28T05:08:14;9.60;84.30
52245;DHT22;55759;51.586;-1.758;2023-12-28T05:10:40;9.70;83.70
52245;DHT22;55759;51.586;-1.758;2023-12-28T05:13:06;9.70;84.10
52245;DHT22;55759;51.586;-1.758;2023-12-28T05:15:31;9.70;83.60
52245;DHT22;55759;51.586;-1.758;2023-12-28T05:17:57;9.70;83.30
52245;DHT22;55759;51.586;-1.758;2023-12-28T05:20:22;9.80;83.50
52245;DHT22;55759;51.586;-1.758;2023-12-28T05:22:48;9.80;83.20
52245;DHT22;55759;51.586;-1.758;2023-12-28T05:25:14;9.80;83.10
52245;DHT22;55759;51.586;-1.758;2023-12-28T05:27:39;9.70;83.10
52245;DHT22;55759;51.586;-1.758;2023-12-28T05:30:05;9.70;83.40
52245;DHT22;55759;51.586;-1.758;2023-12-28T05:32:31;9.70;83.30
52245;DHT22;55759;51.586;-1.758;2023-12-28T05:34:56;9.70;83.30
52245;DHT22;55759;51.586;-1.758;2023-12-28T05:37:22;9.70;83.40
52245;DHT22;55759;51.586;-1.758;2023-12-28T05:39:47;9.80;83.10
52245;DHT22;55759;51.586;-1.758;2023-12-28T05:42:13;9.80;83.20
52245;DHT22;55759;51.586;-1.758;2023-12-28T05:44:38;9.90;82.30
52245;DHT22;55759;51.586;-1.758;2023-12-28T05:47:04;10.00;82.30
52245;DHT22;55759;51.586;-1.758;2023-12-28T05:49:30;10.10;82.40
52245;DHT22;55759;51.586;-1.758;2023-12-28T05:51:56;10.10;82.40
52245;DHT22;55759;51.586;-1.758;2023-12-28T05:54:21;10.00;83.10
52245;DHT22;55759;51.586;-1.758;2023-12-28T05:56:47;9.80;84.20
52245;DHT22;55759;51.586;-1.758;2023-12-28T05:59:12;9.60;85.40
52245;DHT22;55759;51.586;-1.758;2023-12-28T06:01:41;9.50;86.40
52245;DHT22;55759;51.586;-1.758;2023-12-28T06:04:08;9.40;86.60
52245;DHT22;55759;51.586;-1.758;2023-12-28T06:06:33;9.30;87.00
52245;DHT22;55759;51.586;-1.758;2023-12-28T06:08:59;9.20;86.80
52245;DHT22;55759;51.586;-1.758;2023-12-28T06:11:25;9.10;86.70
52245;DHT22;55759;51.586;-1.758;2023-12-28T06:13:50;9.20;86.70
52245;DHT22;55759;51.586;-1.758;2023-12-28T06:16:16;9.10;86.90
52245;DHT22;55759;51.586;-1.758;2023-12-28T06:18:41;9.10;87.20
52245;DHT22;55759;51.586;-1.758;2023-12-28T06:21:07;9.10;87.10
52245;DHT22;55759;51.586;-1.758;2023-12-28T06:23:33;9.20;87.20
52245;DHT22;55759;51.586;-1.758;2023-12-28T06:26:03;9.20;86.90
52245;DHT22;55759;51.586;-1.758;2023-12-28T06:28:29;9.20;86.50
52245;DHT22;55759;51.586;-1.758;2023-12-28T06:30:55;9.20;86.40
52245;DHT22;55759;51.586;-1.758;2023-12-28T06:33:25;9.20;86.90
52245;DHT22;55759;51.586;-1.758;2023-12-28T06:35:50;9.30;86.50
52245;DHT22;55759;51.586;-1.758;2023-12-28T06:38:16;9.40;86.50
52245;DHT22;55759;51.586;-1.758;2023-12-28T06:40:41;9.40;86.60
52245;DHT22;55759;51.586;-1.758;2023-12-28T06:43:07;9.30;86.90
52245;DHT22;55759;51.586;-1.758;2023-12-28T06:45:32;9.30;87.10
52245;DHT22;55759;51.586;-1.758;2023-12-28T06:47:58;9.20;87.60
52245;DHT22;55759;51.586;-1.758;2023-12-28T06:50:23;9.20;88.00
52245;DHT22;55759;51.586;-1.758;2023-12-28T06:52:49;9.10;88.40
52245;DHT22;55759;51.586;-1.758;2023-12-28T06:55:15;9.10;88.90
52245;DHT22;55759;51.586;-1.758;2023-12-28T06:57:40;9.00;89.10
52245;DHT22;55759;51.586;-1.758;2023-12-28T07:00:06;9.00;89.30
52245;DHT22;55759;51.586;-1.758;2023-12-28T07:02:32;9.00;89.60
52245;DHT22;55759;51.586;-1.758;2023-12-28T07:04:57;9.00;89.80
52245;DHT22;55759;51.586;-1.758;2023-12-28T07:07:23;9.00;90.00
52245;DHT22;55759;51.586;-1.758;2023-12-28T07:09:49;8.90;90.20
52245;DHT22;55759;51.586;-1.758;2023-12-28T07:12:14;8.90;90.30
52245;DHT22;55759;51.586;-1.758;2023-12-28T07:14:40;8.90;90.40
52245;DHT22;55759;51.586;-1.758;2023-12-28T07:17:05;8.80;90.50
52245;DHT22;55759;51.586;-1.758;2023-12-28T07:19:31;8.70;90.60
52245;DHT22;55759;51.586;-1.758;2023-12-28T07:21:57;8.60;90.60
52245;DHT22;55759;51.586;-1.758;2023-12-28T07:24:23;8.60;90.40
52245;DHT22;55759;51.586;-1.758;2023-12-28T07:26:48;8.60;90.40
52245;DHT22;55759;51.586;-1.758;2023-12-28T07:29:14;8.50;90.30
52245;DHT22;55759;51.586;-1.758;2023-12-28T07:31:39;8.50;89.70
52245;DHT22;55759;51.586;-1.758;2023-12-28T07:34:05;8.40;89.70
52245;DHT22;55759;51.586;-1.758;2023-12-28T07:36:31;8.40;89.30
52245;DHT22;55759;51.586;-1.758;2023-12-28T07:38:56;8.50;89.00
52245;DHT22;55759;51.586;-1.758;2023-12-28T07:41:22;8.50;89.00
52245;DHT22;55759;51.586;-1.758;2023-12-28T07:43:47;8.50;88.80
52245;DHT22;55759;51.586;-1.758;2023-12-28T07:46:14;8.50;88.30
52245;DHT22;55759;51.586;-1.758;2023-12-28T07:48:40;8.50;88.10
52245;DHT22;55759;51.586;-1.758;2023-12-28T07:51:06;8.50;87.80
52245;DHT22;55759;51.586;-1.758;2023-12-28T07:53:32;8.60;87.80
52245;DHT22;55759;51.586;-1.758;2023-12-28T07:55:57;8.60;87.50
52245;DHT22;55759;51.586;-1.758;2023-12-28T07:58:23;8.60;87.10
52245;DHT22;55759;51.586;-1.758;2023-12-28T08:00:48;8.60;87.20
52245;DHT22;55759;51.586;-1.758;2023-12-28T08:03:14;8.70;87.10
52245;DHT22;55759;51.586;-1.758;2023-12-28T08:05:43;8.70;87.10
52245;DHT22;55759;51.586;-1.758;2023-12-28T08:08:08;8.70;87.00
52245;DHT22;55759;51.586;-1.758;2023-12-28T08:10:34;8.80;86.90
52245;DHT22;55759;51.586;-1.758;2023-12-28T08:12:59;8.80;86.70
52245;DHT22;55759;51.586;-1.758;2023-12-28T08:15:25;8.80;86.80
52245;DHT22;55759;51.586;-1.758;2023-12-28T08:17:50;8.80;86.60
52245;DHT22;55759;51.586;-1.758;2023-12-28T08:20:16;8.80;86.30
52245;DHT22;55759;51.586;-1.758;2023-12-28T08:22:42;8.90;86.10
52245;DHT22;55759;51.586;-1.758;2023-12-28T08:25:07;8.90;85.70
52245;DHT22;55759;51.586;-1.758;2023-12-28T08:27:33;9.10;85.50
52245;DHT22;55759;51.586;-1.758;2023-12-28T08:29:58;9.20;84.80
52245;DHT22;55759;51.586;-1.758;2023-12-28T08:32:24;9.20;84.70
52245;DHT22;55759;51.586;-1.758;2023-12-28T08:34:49;9.10;84.80
52245;DHT22;55759;51.586;-1.758;2023-12-28T08:37:16;9.10;84.90
52245;DHT22;55759;51.586;-1.758;2023-12-28T08:39:41;9.10;85.00
52245;DHT22;55759;51.586;-1.758;2023-12-28T08:42:07;9.10;84.80
52245;DHT22;55759;51.586;-1.758;2023-12-28T08:44:32;9.10;84.70
52245;DHT22;55759;51.586;-1.758;2023-12-28T08:46:59;9.10;85.00
52245;DHT22;55759;51.586;-1.758;2023-12-28T08:49:24;9.10;85.30
52245;DHT22;55759;51.586;-1.758;2023-12-28T08:51:50;9.10;85.10
52245;DHT22;55759;51.586;-1.758;2023-12-28T08:54:16;9.10;85.30
52245;DHT22;55759;51.586;-1.758;2023-12-28T08:56:41;9.10;84.90
52245;DHT22;55759;51.586;-1.758;2023-12-28T08:59:07;9.10;84.90
52245;DHT22;55759;51.586;-1.758;2023-12-28T09:01:33;9.10;84.90
52245;DHT22;55759;51.586;-1.758;2023-12-28T09:03:58;9.10;84.70
52245;DHT22;55759;51.586;-1.758;2023-12-28T09:06:24;9.20;84.30
52245;DHT22;55759;51.586;-1.758;2023-12-28T09:08:51;9.20;84.40
52245;DHT22;55759;51.586;-1.758;2023-12-28T09:11:17;9.30;84.30
52245;DHT22;55759;51.586;-1.758;2023-12-28T09:13:42;9.30;84.40
52245;DHT22;55759;51.586;-1.758;2023-12-28T09:16:09;9.20;84.50
52245;DHT22;55759;51.586;-1.758;2023-12-28T09:18:35;9.20;84.50
52245;DHT22;55759;51.586;-1.758;2023-12-28T09:21:03;9.20;84.40
52245;DHT22;55759;51.586;-1.758;2023-12-28T09:23:28;9.20;84.30
52245;DHT22;55759;51.586;-1.758;2023-12-28T09:25:54;9.20;84.30
52245;DHT22;55759;51.586;-1.758;2023-12-28T09:28:19;9.20;84.50
52245;DHT22;55759;51.586;-1.758;2023-12-28T09:30:45;9.20;84.70
52245;DHT22;55759;51.586;-1.758;2023-12-28T09:33:11;9.20;84.80
52245;DHT22;55759;51.586;-1.758;2023-12-28T09:35:36;9.10;84.90
52245;DHT22;55759;51.586;-1.758;2023-12-28T09:38:02;9.20;84.80
52245;DHT22;55759;51.586;-1.758;2023-12-28T09:40:28;9.20;84.60
52245;DHT22;55759;51.586;-1.758;2023-12-28T09:43:01;9.20;84.60
52245;DHT22;55759;51.586;-1.758;2023-12-28T09:45:29;9.40;84.60
52245;DHT22;55759;51.586;-1.758;2023-12-28T09:47:55;9.40;84.60
52245;DHT22;55759;51.586;-1.758;2023-12-28T09:50:20;9.50;84.60
52245;DHT22;55759;51.586;-1.758;2023-12-28T09:52:46;9.60;84.50
52245;DHT22;55759;51.586;-1.758;2023-12-28T09:55:12;9.60;84.70
52245;DHT22;55759;51.586;-1.758;2023-12-28T09:57:38;9.80;84.50
52245;DHT22;55759;51.586;-1.758;2023-12-28T10:00:04;9.80;84.00
52245;DHT22;55759;51.586;-1.758;2023-12-28T10:02:32;9.80;83.90
52245;DHT22;55759;51.586;-1.758;2023-12-28T10:04:59;9.80;83.90
52245;DHT22;55759;51.586;-1.758;2023-12-28T10:07:24;9.90;84.10
52245;DHT22;55759;51.586;-1.758;2023-12-28T10:09:51;9.90;84.20
52245;DHT22;55759;51.586;-1.758;2023-12-28T10:12:16;9.90;84.10
52245;DHT22;55759;51.586;-1.758;2023-12-28T10:14:42;9.90;84.00
52245;DHT22;55759;51.586;-1.758;2023-12-28T10:17:07;10.00;83.80
52245;DHT22;55759;51.586;-1.758;2023-12-28T10:19:34;10.00;83.60
52245;DHT22;55759;51.586;-1.758;2023-12-28T10:22:01;10.00;83.60
52245;DHT22;55759;51.586;-1.758;2023-12-28T10:24:27;10.00;83.30
52245;DHT22;55759;51.586;-1.758;2023-12-28T10:26:53;10.10;83.30
52245;DHT22;55759;51.586;-1.758;2023-12-28T10:29:18;10.10;83.20
52245;DHT22;55759;51.586;-1.758;2023-12-28T10:31:44;10.10;83.40
52245;DHT22;55759;51.586;-1.758;2023-12-28T10:34:10;10.10;83.40
52245;DHT22;55759;51.586;-1.758;2023-12-28T10:36:35;10.20;83.50
52245;DHT22;55759;51.586;-1.758;2023-12-28T10:39:03;10.20;83.10
52245;DHT22;55759;51.586;-1.758;2023-12-28T10:41:30;10.40;83.30
52245;DHT22;55759;51.586;-1.758;2023-12-28T10:44:02;10.40;83.20
52245;DHT22;55759;51.586;-1.758;2023-12-28T10:46:30;10.50;82.90
52245;DHT22;55759;51.586;-1.758;2023-12-28T10:49:04;10.60;82.80
52245;DHT22;55759;51.586;-1.758;2023-12-28T10:51:30;10.70;82.90
52245;DHT22;55759;51.586;-1.758;2023-12-28T10:58:48;10.90;82.40
52245;DHT22;55759;51.586;-1.758;2023-12-28T11:01:22;11.00;82.30
52245;DHT22;55759;51.586;-1.758;2023-12-28T11:03:57;11.10;81.40
52245;DHT22;55759;51.586;-1.758;2023-12-28T11:06:25;11.10;81.10
52245;DHT22;55759;51.586;-1.758;2023-12-28T11:08:51;11.20;81.00
52245;DHT22;55759;51.586;-1.758;2023-12-28T11:11:19;11.20;80.70
52245;DHT22;55759;51.586;-1.758;2023-12-28T11:13:45;11.10;80.60
52245;DHT22;55759;51.586;-1.758;2023-12-28T11:16:10;11.10;80.70
52245;DHT22;55759;51.586;-1.758;2023-12-28T11:18:36;11.10;80.90
52245;DHT22;55759;51.586;-1.758;2023-12-28T11:21:02;11.10;81.00
52245;DHT22;55759;51.586;-1.758;2023-12-28T11:23:28;11.20;81.10
52245;DHT22;55759;51.586;-1.758;2023-12-28T11:25:54;11.20;80.70
52245;DHT22;55759;51.586;-1.758;2023-12-28T11:28:20;11.20;79.90
52245;DHT22;55759;51.586;-1.758;2023-12-28T11:30:48;11.20;80.30
52245;DHT22;55759;51.586;-1.758;2023-12-28T11:33:14;11.20;80.20
52245;DHT22;55759;51.586;-1.758;2023-12-28T11:35:40;11.20;80.00
52245;DHT22;55759;51.586;-1.758;2023-12-28T11:38:09;11.30;80.10
52245;DHT22;55759;51.586;-1.758;2023-12-28T11:40:42;11.30;79.70
52245;DHT22;55759;51.586;-1.758;2023-12-28T11:43:15;11.50;79.20
52245;DHT22;55759;51.586;-1.758;2023-12-28T11:45:56;11.50;79.10
52245;DHT22;55759;51.586;-1.758;2023-12-28T11:48:23;11.60;78.50
52245;DHT22;55759;51.586;-1.758;2023-12-28T11:50:49;11.70;78.00
52245;DHT22;55759;51.586;-1.758;2023-12-28T11:53:15;11.60;78.10
52245;DHT22;55759;51.586;-1.758;2023-12-28T11:55:42;11.60;78.40
52245;DHT22;55759;51.586;-1.758;2023-12-28T11:58:07;11.60;78.40
52245;DHT22;55759;51.586;-1.758;2023-12-28T12:00:33;11.70;78.20
52245;DHT22;55759;51.586;-1.758;2023-12-28T12:02:58;11.80;78.20
52245;DHT22;55759;51.586;-1.758;2023-12-28T12:05:24;11.80;78.00
52245;DHT22;55759;51.586;-1.758;2023-12-28T12:07:49;11.80;78.50
52245;DHT22;55759;51.586;-1.758;2023-12-28T12:10:15;11.90;78.30
52245;DHT22;55759;51.586;-1.758;2023-12-28T12:12:41;11.90;78.50
52245;DHT22;55759;51.586;-1.758;2023-12-28T12:15:07;11.90;78.40
52245;DHT22;55759;51.586;-1.758;2023-12-28T12:17:33;11.90;78.20
52245;DHT22;55759;51.586;-1.758;2023-12-28T12:19:59;12.00;77.90
52245;DHT22;55759;51.586;-1.758;2023-12-28T12:22:25;12.00;77.90
52245;DHT22;55759;51.586;-1.758;2023-12-28T12:24:50;12.00;78.40
52245;DHT22;55759;51.586;-1.758;2023-12-28T12:27:17;11.90;79.00
52245;DHT22;55759;51.586;-1.758;2023-12-28T12:29:42;11.70;80.00
52245;DHT22;55759;51.586;-1.758;2023-12-28T12:32:08;11.50;81.70
52245;DHT22;55759;51.586;-1.758;2023-12-28T12:34:34;11.30;82.70
52245;DHT22;55759;51.586;-1.758;2023-12-28T12:37:00;11.00;84.00
52245;DHT22;55759;51.586;-1.758;2023-12-28T12:39:25;10.70;85.40
52245;DHT22;55759;51.586;-1.758;2023-12-28T12:41:51;10.60;86.30
52245;DHT22;55759;51.586;-1.758;2023-12-28T12:44:19;10.50;86.70
52245;DHT22;55759;51.586;-1.758;2023-12-28T12:46:45;10.40;87.00
52245;DHT22;55759;51.586;-1.758;2023-12-28T12:49:10;10.40;87.10
52245;DHT22;55759;51.586;-1.758;2023-12-28T12:51:36;10.40;87.20
52245;DHT22;55759;51.586;-1.758;2023-12-28T12:54:02;10.30;87.30
52245;DHT22;55759;51.586;-1.758;2023-12-28T12:56:31;10.30;87.00
52245;DHT22;55759;51.586;-1.758;2023-12-28T12:58:57;10.30;87.20
52245;DHT22;55759;51.586;-1.758;2023-12-28T13:01:23;10.40;87.20
52245;DHT22;55759;51.586;-1.758;2023-12-28T13:03:49;10.40;86.50
52245;DHT22;55759;51.586;-1.758;2023-12-28T13:06:15;10.40;86.50
52245;DHT22;55759;51.586;-1.758;2023-12-28T13:08:40;10.40;86.00
52245;DHT22;55759;51.586;-1.758;2023-12-28T13:11:06;10.50;85.80
52245;DHT22;55759;51.586;-1.758;2023-12-28T13:13:35;10.60;85.10
52245;DHT22;55759;51.586;-1.758;2023-12-28T13:16:01;10.70;84.60
52245;DHT22;55759;51.586;-1.758;2023-12-28T13:18:26;10.80;84.40
52245;DHT22;55759;51.586;-1.758;2023-12-28T13:20:52;10.90;83.70
52245;DHT22;55759;51.586;-1.758;2023-12-28T13:23:17;11.10;83.10
52245;DHT22;55759;51.586;-1.758;2023-12-28T13:25:43;11.20;82.70
52245;DHT22;55759;51.586;-1.758;2023-12-28T13:28:09;11.30;81.90
52245;DHT22;55759;51.586;-1.758;2023-12-28T13:30:35;11.40;81.90
52245;DHT22;55759;51.586;-1.758;2023-12-28T13:33:02;11.40;81.70
52245;DHT22;55759;51.586;-1.758;2023-12-28T13:35:28;11.40;81.40
52245;DHT22;55759;51.586;-1.758;2023-12-28T13:37:54;11.60;81.30
52245;DHT22;55759;51.586;-1.758;2023-12-28T13:40:20;11.60;80.90
52245;DHT22;55759;51.586;-1.758;2023-12-28T13:42:46;11.60;80.70
52245;DHT22;55759;51.586;-1.758;2023-12-28T13:45:11;11.60;80.70
52245;DHT22;55759;51.586;-1.758;2023-12-28T13:47:37;11.60;80.50
52245;DHT22;55759;51.586;-1.758;2023-12-28T13:50:03;11.70;80.40
52245;DHT22;55759;51.586;-1.758;2023-12-28T13:52:29;11.80;80.20
52245;DHT22;55759;51.586;-1.758;2023-12-28T13:54:54;11.80;80.20
52245;DHT22;55759;51.586;-1.758;2023-12-28T13:57:20;11.80;80.10
52245;DHT22;55759;51.586;-1.758;2023-12-28T13:59:46;11.80;80.40
52245;DHT22;55759;51.586;-1.758;2023-12-28T14:02:11;11.80;80.50
52245;DHT22;55759;51.586;-1.758;2023-12-28T14:04:37;11.80;80.10
52245;DHT22;55759;51.586;-1.758;2023-12-28T14:07:02;11.80;80.10
52245;DHT22;55759;51.586;-1.758;2023-12-28T14:09:28;11.70;80.40
52245;DHT22;55759;51.586;-1.758;2023-12-28T14:11:54;11.70;80.60
52245;DHT22;55759;51.586;-1.758;2023-12-28T14:14:20;11.60;80.50
52245;DHT22;55759;51.586;-1.758;2023-12-28T14:16:45;11.60;80.70
52245;DHT22;55759;51.586;-1.758;2023-12-28T14:19:11;11.60;81.10
52245;DHT22;55759;51.586;-1.758;2023-12-28T14:21:37;11.50;81.50
52245;DHT22;55759;51.586;-1.758;2023-12-28T14:24:03;11.20;82.90
52245;DHT22;55759;51.586;-1.758;2023-12-28T14:26:29;11.00;84.30
52245;DHT22;55759;51.586;-1.758;2023-12-28T14:28:56;10.80;85.20
52245;DHT22;55759;51.586;-1.758;2023-12-28T14:31:22;10.60;86.00
52245;DHT22;55759;51.586;-1.758;2023-12-28T14:33:48;10.50;86.50
52245;DHT22;55759;51.586;-1.758;2023-12-28T14:38:42;10.40;87.40
52245;DHT22;55759;51.586;-1.758;2023-12-28T14:41:08;10.30;87.70
52245;DHT22;55759;51.586;-1.758;2023-12-28T14:43:34;10.30;87.50
52245;DHT22;55759;51.586;-1.758;2023-12-28T14:46:00;10.20;87.50
52245;DHT22;55759;51.586;-1.758;2023-12-28T14:48:26;10.20;87.80
52245;DHT22;55759;51.586;-1.758;2023-12-28T14:50:51;10.20;88.10
52245;DHT22;55759;51.586;-1.758;2023-12-28T14:53:17;10.10;88.40
52245;DHT22;55759;51.586;-1.758;2023-12-28T14:55:43;10.10;88.50
52245;DHT22;55759;51.586;-1.758;2023-12-28T14:58:09;10.10;88.50
52245;DHT22;55759;51.586;-1.758;2023-12-28T15:00:34;10.10;88.80
52245;DHT22;55759;51.586;-1.758;2023-12-28T15:03:00;10.10;88.80
52245;DHT22;55759;51.586;-1.758;2023-12-28T15:05:25;10.10;88.70
52245;DHT22;55759;51.586;-1.758;2023-12-28T15:07:52;10.10;88.50
52245;DHT22;55759;51.586;-1.758;2023-12-28T15:10:18;10.10;88.60
52245;DHT22;55759;51.586;-1.758;2023-12-28T15:12:44;10.00;88.60
52245;DHT22;55759;51.586;-1.758;2023-12-28T15:15:09;10.10;88.80
52245;DHT22;55759;51.586;-1.758;2023-12-28T15:17:37;10.10;89.10
52245;DHT22;55759;51.586;-1.758;2023-12-28T15:20:03;10.10;89.20
52245;DHT22;55759;51.586;-1.758;2023-12-28T15:22:29;10.00;89.60
52245;DHT22;55759;51.586;-1.758;2023-12-28T15:24:55;10.00;89.80